createdAt,value
2018-12-01T00:00:24.832Z,84.32
2018-12-01T00:02:52.901Z,76.20
2018-12-01T00:05:40.747Z,75.57
2018-12-01T00:08:09.056Z,73.72
2018-12-01T00:10:37.390Z,68.30
2018-12-01T00:13:06.414Z,65.20
2018-12-01T00:15:34.669Z,69.77
2018-12-01T00:18:02.706Z,66.77
2018-12-01T00:20:34.851Z,78.07
2018-12-01T00:23:03.218Z,73.35
2018-12-01T00:25:31.169Z,72.47
2018-12-01T00:28:00.647Z,68.75
2018-12-01T00:30:28.856Z,66.10
2018-12-01T00:32:57.059Z,67.22
2018-12-01T00:35:25.395Z,63.65
2018-12-01T00:37:53.634Z,56.45
2018-12-01T00:40:21.859Z,59.23
2018-12-01T00:42:50.236Z,68.80
2018-12-01T00:45:19.335Z,61.28
2018-12-01T00:47:48.553Z,57.85
2018-12-01T00:50:19.283Z,61.02
2018-12-01T00:52:48.259Z,55.28
2018-12-01T00:55:17.253Z,56.13
2018-12-01T00:57:45.184Z,54.88
2018-12-01T01:00:21.299Z,53.83
2018-12-01T01:02:58.560Z,58.90
2018-12-01T01:05:29.436Z,63.60
2018-12-01T01:07:58.323Z,56.48
2018-12-01T01:10:27.717Z,49.25
2018-12-01T01:12:55.684Z,53.20
2018-12-01T01:15:23.736Z,57.23
2018-12-01T01:17:51.905Z,54.48
2018-12-01T01:20:20.905Z,58.75
2018-12-01T01:22:49.540Z,54.18
2018-12-01T01:25:17.504Z,59.03
2018-12-01T01:27:45.834Z,63.05
2018-12-01T01:30:21.994Z,59.90
2018-12-01T01:32:52.275Z,59.25
2018-12-01T01:35:20.243Z,61.90
2018-12-01T01:37:48.224Z,56.63
2018-12-01T01:40:17.084Z,58.25
2018-12-01T01:42:45.207Z,60.95
2018-12-01T01:45:17.535Z,56.80
2018-12-01T01:47:45.765Z,53.10
2018-12-01T01:50:17.575Z,50.00
2018-12-01T01:52:45.625Z,51.00
2018-12-01T01:55:13.659Z,55.25
2018-12-01T01:57:41.671Z,48.28
2018-12-01T02:00:13.196Z,55.45
2018-12-01T02:02:47.539Z,50.90
2018-12-01T02:05:16.548Z,50.33
2018-12-01T02:07:44.498Z,55.48
2018-12-01T02:10:14.313Z,49.03
2018-12-01T02:12:43.159Z,52.70
2018-12-01T02:15:12.593Z,59.38
2018-12-01T02:17:40.836Z,54.50
2018-12-01T02:20:15.263Z,52.50
2018-12-01T02:22:43.232Z,56.23
2018-12-01T02:25:12.317Z,60.48
2018-12-01T02:27:40.304Z,62.33
2018-12-01T02:30:09.799Z,60.58
2018-12-01T02:32:38.111Z,66.28
2018-12-01T02:35:08.634Z,64.50
2018-12-01T02:37:36.611Z,76.12
2018-12-01T02:40:06.975Z,73.87
2018-12-01T02:42:35.068Z,73.25
2018-12-01T02:45:13.982Z,78.47
2018-12-01T02:47:41.968Z,87.42
2018-12-01T02:50:12.899Z,80.83
2018-12-01T02:52:40.966Z,91.12
2018-12-01T02:55:09.042Z,92.70
2018-12-01T02:57:36.988Z,87.97
2018-12-01T03:00:07.873Z,80.45
2018-12-01T03:02:35.825Z,71.82
2018-12-01T03:05:04.263Z,72.70
2018-12-01T03:07:32.289Z,71.15
2018-12-01T03:10:00.219Z,76.47
2018-12-01T03:12:29.340Z,68.80
2018-12-01T03:14:57.416Z,70.03
2018-12-01T03:17:25.359Z,68.37
2018-12-01T03:19:53.332Z,68.17
2018-12-01T03:22:21.411Z,62.45
2018-12-01T03:24:49.699Z,63.52
2018-12-01T03:27:17.758Z,64.62
2018-12-01T03:29:45.791Z,64.40
2018-12-01T03:32:13.738Z,60.80
2018-12-01T03:34:41.931Z,62.88
2018-12-01T03:37:10.275Z,68.02
2018-12-01T03:39:38.207Z,59.30
2018-12-01T03:42:06.440Z,63.33
2018-12-01T03:44:35.495Z,59.05
2018-12-01T03:47:03.511Z,57.98
2018-12-01T03:49:31.714Z,59.27
2018-12-01T03:51:59.634Z,64.87
2018-12-01T03:54:27.568Z,56.80
2018-12-01T03:56:55.505Z,60.98
2018-12-01T03:59:23.484Z,63.40
2018-12-01T04:01:51.472Z,60.90
2018-12-01T04:04:19.386Z,61.15
2018-12-01T04:06:48.706Z,60.90
2018-12-01T04:09:21.034Z,69.58
2018-12-01T04:11:49.035Z,65.57
2018-12-01T04:14:17.329Z,70.62
2018-12-01T04:16:45.220Z,70.40
2018-12-01T04:19:14.188Z,68.37
2018-12-01T04:21:42.483Z,74.90
2018-12-01T04:24:10.460Z,64.12
2018-12-01T04:26:38.672Z,70.70
2018-12-01T04:29:06.613Z,72.97
2018-12-01T04:31:34.547Z,68.55
2018-12-01T04:34:03.075Z,74.40
2018-12-01T04:36:31.087Z,79.65
2018-12-01T04:39:00.098Z,79.85
2018-12-01T04:41:28.262Z,73.02
2018-12-01T04:43:56.199Z,77.12
2018-12-01T04:46:24.515Z,72.87
2018-12-01T04:48:52.664Z,63.92
2018-12-01T04:51:20.604Z,81.63
2018-12-01T04:53:48.532Z,69.30
2018-12-01T04:56:16.508Z,67.30
2018-12-01T04:58:44.443Z,69.53
2018-12-01T05:01:12.480Z,66.77
2018-12-01T05:03:40.439Z,67.22
2018-12-01T05:06:08.399Z,64.12
2018-12-01T05:08:36.413Z,68.62
2018-12-01T05:11:04.763Z,62.98
2018-12-01T05:13:32.716Z,58.83
2018-12-01T05:16:00.659Z,67.72
2018-12-01T05:18:28.703Z,61.63
2018-12-01T05:20:57.026Z,64.47
2018-12-01T05:23:25.236Z,73.15
2018-12-01T05:25:53.560Z,58.95
2018-12-01T05:28:21.487Z,66.65
2018-12-01T05:30:49.723Z,76.82
2018-12-01T05:33:17.974Z,70.95
2018-12-01T05:35:46.251Z,73.57
2018-12-01T05:38:14.239Z,75.05
2018-12-01T05:40:42.206Z,76.33
2018-12-01T05:43:10.199Z,70.85
2018-12-01T05:45:38.947Z,89.00
2018-12-01T05:48:06.936Z,74.25
2018-12-01T05:50:34.869Z,76.82
2018-12-01T05:53:02.921Z,80.97
2018-12-01T05:55:31.858Z,75.55
2018-12-01T05:58:01.227Z,74.25
2018-12-01T06:00:29.199Z,73.60
2018-12-01T06:02:57.199Z,84.55
2018-12-01T06:05:26.381Z,80.15
2018-12-01T06:07:54.322Z,82.97
2018-12-01T06:10:22.675Z,90.10
2018-12-01T06:12:51.997Z,74.92
2018-12-01T06:15:20.468Z,84.05
2018-12-01T06:17:49.413Z,79.82
2018-12-01T06:20:21.672Z,71.42
2018-12-01T06:22:50.040Z,77.08
2018-12-01T06:25:19.368Z,77.67
2018-12-01T06:27:50.378Z,71.92
2018-12-01T06:30:19.095Z,76.00
2018-12-01T06:32:48.307Z,75.87
2018-12-01T06:35:16.443Z,73.33
2018-12-01T06:37:44.709Z,71.87
2018-12-01T06:40:17.931Z,77.65
2018-12-01T06:42:46.057Z,80.83
2018-12-01T06:45:14.928Z,70.10
2018-12-01T06:47:42.959Z,73.62
2018-12-01T06:50:16.999Z,77.70
2018-12-01T06:52:45.294Z,73.78
2018-12-01T06:55:13.969Z,87.55
2018-12-01T06:57:44.965Z,73.65
2018-12-01T07:00:15.730Z,79.82
2018-12-01T07:02:44.766Z,79.97
2018-12-01T07:05:14.843Z,80.77
2018-12-01T07:07:43.263Z,86.37
2018-12-01T07:24:33.527Z,74.77
2018-12-01T07:27:01.476Z,82.60
2018-12-01T07:29:29.715Z,79.67
2018-12-01T07:31:57.956Z,80.72
2018-12-01T07:34:25.913Z,77.92
2018-12-01T07:36:54.103Z,87.33
2018-12-01T07:39:22.415Z,106.87
2018-12-01T07:41:50.627Z,91.22
2018-12-01T07:44:18.888Z,87.25
2018-12-01T07:46:47.218Z,95.05
2018-12-01T07:49:15.156Z,88.15
2018-12-01T07:51:43.130Z,95.65
2018-12-01T07:54:11.176Z,90.92
2018-12-01T07:56:39.524Z,93.97
2018-12-01T07:59:07.491Z,102.00
2018-12-01T08:01:35.646Z,90.90
2018-12-01T08:04:04.124Z,96.97
2018-12-01T08:06:32.172Z,97.50
2018-12-01T08:09:00.426Z,93.90
2018-12-01T08:11:28.709Z,104.97
2018-12-01T08:13:56.663Z,113.05
2018-12-01T08:16:24.627Z,108.45
2018-12-01T08:18:52.699Z,122.45
2018-12-01T08:21:21.067Z,102.10
2018-12-01T08:23:49.328Z,111.68
2018-12-01T08:26:19.452Z,108.15
2018-12-01T08:28:47.554Z,112.92
2018-12-01T08:31:15.751Z,118.53
2018-12-01T08:33:44.039Z,114.72
2018-12-01T08:36:12.380Z,115.03
2018-12-01T08:38:40.619Z,114.28
2018-12-01T08:41:08.841Z,104.17
2018-12-01T08:46:13.112Z,108.85
2018-12-01T08:48:46.933Z,93.37
2018-12-01T08:51:16.861Z,92.55
2018-12-01T08:54:02.772Z,91.10
2018-12-01T08:56:32.935Z,90.62
2018-12-01T08:59:04.216Z,96.50
2018-12-01T09:01:34.843Z,93.67
2018-12-01T09:04:03.423Z,97.60
2018-12-01T09:06:37.360Z,92.60
2018-12-01T09:09:08.687Z,92.85
2018-12-01T09:14:24.004Z,89.95
2018-12-01T09:17:14.481Z,94.30
2018-12-01T09:19:49.038Z,93.67
2018-12-01T09:22:27.821Z,96.45
2018-12-01T09:24:58.063Z,94.22
2018-12-01T09:27:28.543Z,92.80
2018-12-01T09:29:57.831Z,99.28
2018-12-01T09:32:28.991Z,101.00
2018-12-01T09:34:59.336Z,103.67
2018-12-01T09:37:31.401Z,98.62
2018-12-01T09:40:06.920Z,100.35
2018-12-01T09:42:37.947Z,103.12
2018-12-01T09:45:11.382Z,96.50
2018-12-01T09:47:53.749Z,89.60
2018-12-01T09:50:24.095Z,82.15
2018-12-01T09:52:56.531Z,81.60
2018-12-01T09:55:30.103Z,80.32
2018-12-01T09:58:01.695Z,81.97
2018-12-01T10:00:33.928Z,80.00
2018-12-01T10:03:07.476Z,82.88
2018-12-01T10:05:41.267Z,85.07
2018-12-01T10:08:09.775Z,83.85
2018-12-01T10:10:43.603Z,70.42
2018-12-01T10:13:14.476Z,75.10
2018-12-01T10:15:44.981Z,68.85
2018-12-01T10:18:16.554Z,62.60
2018-12-01T10:20:47.873Z,64.95
2018-12-01T10:23:21.013Z,59.88
2018-12-01T10:25:49.909Z,71.75
2018-12-01T10:28:20.874Z,73.80
2018-12-01T10:30:53.793Z,77.08
2018-12-01T10:33:24.258Z,73.20
2018-12-01T10:35:54.773Z,74.15
2018-12-01T10:38:23.423Z,79.00
2018-12-01T10:40:54.714Z,76.15
2018-12-01T10:43:25.342Z,63.92
2018-12-01T10:45:55.775Z,72.12
2018-12-01T10:48:26.964Z,73.67
2018-12-01T10:50:57.710Z,83.25
2018-12-01T10:53:28.688Z,91.70
2018-12-01T10:55:59.815Z,81.08
2018-12-01T10:58:30.352Z,68.00
2018-12-01T11:01:06.379Z,77.05
2018-12-01T11:03:44.873Z,71.67
2018-12-01T11:06:16.315Z,72.40
2018-12-01T11:08:46.475Z,77.45
2018-12-01T11:11:17.127Z,79.25
2018-12-01T11:13:46.943Z,85.22
2018-12-01T11:16:17.773Z,82.85
2018-12-01T11:18:47.976Z,75.65
2018-12-01T11:21:19.160Z,81.12
2018-12-01T11:23:48.999Z,79.05
2018-12-01T11:26:21.360Z,75.85
2018-12-01T11:28:53.413Z,76.22
2018-12-01T11:31:23.269Z,80.45
2018-12-01T11:33:53.716Z,83.12
2018-12-01T11:36:26.228Z,85.83
2018-12-01T11:38:55.940Z,76.60
2018-12-01T11:41:26.392Z,84.70
2018-12-01T11:43:57.128Z,75.25
2018-12-01T11:46:29.707Z,77.47
2018-12-01T11:49:01.304Z,81.47
2018-12-01T11:51:32.296Z,75.30
2018-12-01T11:54:02.492Z,75.70
2018-12-01T11:56:33.183Z,77.35
2018-12-01T11:59:08.699Z,71.37
2018-12-01T12:01:39.485Z,75.92
2018-12-01T12:04:10.001Z,82.25
2018-12-01T12:06:40.509Z,75.40
2018-12-01T12:09:11.000Z,82.55
2018-12-01T12:11:41.536Z,81.32
2018-12-01T12:14:12.825Z,76.02
2018-12-01T12:16:42.303Z,79.92
2018-12-01T12:19:12.740Z,81.85
2018-12-01T12:21:42.753Z,119.00
2018-12-01T12:24:13.396Z,96.22
2018-12-01T12:26:42.256Z,104.70
2018-12-01T12:29:11.372Z,86.25
2018-12-01T12:31:41.806Z,89.32
2018-12-01T12:34:13.759Z,85.90
2018-12-01T12:36:47.395Z,114.03
2018-12-01T12:39:19.642Z,107.43
2018-12-01T12:41:48.577Z,86.80
2018-12-01T12:44:18.406Z,83.00
2018-12-01T12:46:48.116Z,91.02
2018-12-01T12:49:18.465Z,94.05
2018-12-01T12:51:48.093Z,108.75
2018-12-01T12:54:25.324Z,111.30
2018-12-01T12:56:56.724Z,92.85
2018-12-01T12:59:33.733Z,87.40
2018-12-01T13:02:03.686Z,89.00
2018-12-01T13:04:34.686Z,87.85
2018-12-01T13:07:04.663Z,100.25
2018-12-01T13:09:39.507Z,98.17
2018-12-01T13:12:08.428Z,93.03
2018-12-01T13:14:41.505Z,101.67
2018-12-01T13:17:12.089Z,87.85
2018-12-01T13:19:41.960Z,98.87
2018-12-01T13:22:17.420Z,111.70
2018-12-01T13:24:48.272Z,96.35
2018-12-01T13:27:18.178Z,99.40
2018-12-01T13:29:47.966Z,102.35
2018-12-01T13:32:20.218Z,128.53
2018-12-01T13:34:55.465Z,124.38
2018-12-01T13:37:34.538Z,110.72
2018-12-01T13:40:12.748Z,119.82
2018-12-01T13:42:47.228Z,128.12
2018-12-01T13:45:27.855Z,134.43
2018-12-01T13:47:58.548Z,116.50
2018-12-01T13:50:30.947Z,140.90
2018-12-01T13:53:12.261Z,124.50
2018-12-01T13:58:29.400Z,154.20
2018-12-01T14:01:03.167Z,161.40
2018-12-01T14:03:38.309Z,124.02
2018-12-01T14:06:11.432Z,132.82
2018-12-01T14:08:46.169Z,120.20
2018-12-01T14:11:30.935Z,121.13
2018-12-01T14:14:03.459Z,125.27
2018-12-01T14:16:36.207Z,128.20
2018-12-01T14:19:06.660Z,131.90
2018-12-01T14:21:41.206Z,120.08
2018-12-01T14:24:12.715Z,133.05
2018-12-01T14:26:45.906Z,133.93
2018-12-01T14:29:17.765Z,134.27
2018-12-01T14:32:10.253Z,123.33
2018-12-01T14:34:41.514Z,132.45
2018-12-01T14:37:15.895Z,145.17
2018-12-01T14:39:47.189Z,141.37
2018-12-01T14:42:18.058Z,147.47
2018-12-01T14:44:54.015Z,147.07
2018-12-01T14:47:24.448Z,175.25
2018-12-01T14:49:55.976Z,175.85
2018-12-01T14:52:26.200Z,211.40
2018-12-01T14:54:58.617Z,225.07
2018-12-01T14:57:30.365Z,187.88
2018-12-01T14:59:59.597Z,166.92
2018-12-01T15:02:31.484Z,153.95
2018-12-01T15:05:01.216Z,147.75
2018-12-01T15:07:32.694Z,151.30
2018-12-01T15:10:01.933Z,155.82
2018-12-01T15:12:33.769Z,134.75
2018-12-01T15:15:03.832Z,155.18
2018-12-01T15:17:34.870Z,217.95
2018-12-01T15:20:09.340Z,247.82
2018-12-01T15:22:38.768Z,233.17
2018-12-01T15:25:13.070Z,230.12
2018-12-01T15:27:43.126Z,194.22
2018-12-01T15:30:19.363Z,214.72
2018-12-01T15:33:01.451Z,197.82
2018-12-01T15:35:35.054Z,196.53
2018-12-01T15:38:07.224Z,187.40
2018-12-01T15:40:37.490Z,196.00
2018-12-01T15:43:07.341Z,179.23
2018-12-01T15:45:38.183Z,197.43
2018-12-01T15:48:09.080Z,175.47
2018-12-01T15:50:39.599Z,179.82
2018-12-01T15:53:20.414Z,163.70
2018-12-01T15:55:51.103Z,171.20
2018-12-01T15:58:21.404Z,158.65
2018-12-01T16:00:52.292Z,140.30
2018-12-01T16:03:23.637Z,136.60
2018-12-01T16:05:56.348Z,127.60
2018-12-01T16:08:29.739Z,127.00
2018-12-01T16:11:02.944Z,131.05
2018-12-01T16:13:33.110Z,131.75
2018-12-01T16:16:08.619Z,127.67
2018-12-01T16:18:40.471Z,121.28
2018-12-01T16:21:11.694Z,126.15
2018-12-01T16:23:41.995Z,136.18
2018-12-01T16:26:11.342Z,139.00
2018-12-01T16:28:41.947Z,137.47
2018-12-01T16:31:11.953Z,143.30
2018-12-01T16:33:42.447Z,149.72
2018-12-01T16:36:13.544Z,142.05
2018-12-01T16:38:43.108Z,133.78
2018-12-01T16:41:21.091Z,148.80
2018-12-01T16:43:51.307Z,140.82
2018-12-01T16:46:20.427Z,144.35
2018-12-01T16:48:52.082Z,146.62
2018-12-01T16:51:21.835Z,145.32
2018-12-01T16:53:53.637Z,141.57
2018-12-01T16:56:23.276Z,150.93
2018-12-01T16:58:53.786Z,144.85
2018-12-01T17:01:23.926Z,176.18
2018-12-01T17:03:52.689Z,146.98
2018-12-01T17:06:21.942Z,170.02
2018-12-01T17:08:54.469Z,158.75
2018-12-01T17:11:25.964Z,165.80
2018-12-01T17:13:55.596Z,169.57
2018-12-01T17:16:26.569Z,156.43
2018-12-01T17:18:56.772Z,156.28
2018-12-01T17:21:27.336Z,172.95
2018-12-01T17:23:57.375Z,151.20
2018-12-01T17:26:26.618Z,165.07
2018-12-01T17:28:56.059Z,176.32
2018-12-01T17:31:27.859Z,170.28
2018-12-01T17:33:58.684Z,174.45
2018-12-01T17:36:28.547Z,172.13
2018-12-01T17:38:59.235Z,157.93
2018-12-01T17:41:32.332Z,150.57
2018-12-01T17:44:17.368Z,153.80
2018-12-01T17:46:47.849Z,160.07
2018-12-01T17:49:17.264Z,177.70
2018-12-01T17:51:47.318Z,168.60
2018-12-01T17:54:19.812Z,185.12
2018-12-01T17:58:19.334Z,168.40
2018-12-01T18:00:53.158Z,170.30
2018-12-01T18:03:22.474Z,174.25
2018-12-01T18:05:52.857Z,210.30
2018-12-01T18:08:22.991Z,173.50
2018-12-01T18:10:55.720Z,166.88
2018-12-01T18:13:26.391Z,158.75
2018-12-01T18:15:56.114Z,160.57
2018-12-01T18:18:25.284Z,151.53
2018-12-01T18:21:02.919Z,157.93
2018-12-01T18:23:33.490Z,153.45
2018-12-01T18:26:03.783Z,172.95
2018-12-01T18:28:38.578Z,152.78
2018-12-01T18:31:12.759Z,151.93
2018-12-01T18:33:45.919Z,135.45
2018-12-01T18:36:16.804Z,147.00
2018-12-01T18:38:50.792Z,147.07
2018-12-01T18:41:21.557Z,158.40
2018-12-01T18:43:52.109Z,161.75
2018-12-01T18:46:20.871Z,148.78
2018-12-01T18:48:49.279Z,144.22
2018-12-01T18:51:19.927Z,133.32
2018-12-01T18:53:49.929Z,133.05
2018-12-01T18:56:20.336Z,121.75
2018-12-01T18:58:50.919Z,131.60
2018-12-01T19:01:23.442Z,130.65
2018-12-01T19:03:52.078Z,114.90
2018-12-01T19:06:22.051Z,140.15
2018-12-01T19:08:55.197Z,170.00
2018-12-01T19:11:26.687Z,194.97
2018-12-01T19:13:56.872Z,204.28
2018-12-01T19:16:27.288Z,213.50
2018-12-01T19:18:55.811Z,198.50
2018-12-01T19:21:25.736Z,188.85
2018-12-01T19:24:01.306Z,211.80
2018-12-01T19:26:34.592Z,206.32
2018-12-01T19:29:06.169Z,209.40
2018-12-01T19:31:36.831Z,211.47
2018-12-01T19:34:05.344Z,205.12
2018-12-01T19:36:35.513Z,191.30
2018-12-01T19:39:07.668Z,189.18
2018-12-01T19:41:38.191Z,175.55
2018-12-01T19:44:18.256Z,181.32
2018-12-01T19:46:48.642Z,182.37
2018-12-01T19:49:18.114Z,196.87
2018-12-01T19:51:48.116Z,200.07
2018-12-01T19:54:19.297Z,230.77
2018-12-01T19:56:50.012Z,236.65
2018-12-01T19:59:22.287Z,248.62
2018-12-01T20:01:52.767Z,209.40
2018-12-01T20:04:21.434Z,228.42
2018-12-01T20:06:50.744Z,234.12
2018-12-01T20:09:22.089Z,231.28
2018-12-01T20:11:51.446Z,231.95
2018-12-01T20:14:21.555Z,221.72
2018-12-01T20:16:55.022Z,205.27
2018-12-01T20:19:25.180Z,193.70
2018-12-01T20:21:54.730Z,183.03
2018-12-01T20:24:27.883Z,176.90
2018-12-01T20:26:58.321Z,187.03
2018-12-01T20:29:28.679Z,185.28
2018-12-01T20:31:57.915Z,204.87
2018-12-01T20:34:28.017Z,191.12
2018-12-01T20:37:00.490Z,202.25
2018-12-01T20:39:45.041Z,202.10
2018-12-01T20:42:17.048Z,194.22
2018-12-01T20:44:47.292Z,196.22
2018-12-01T20:47:20.779Z,187.00
2018-12-01T20:49:52.385Z,217.35
2018-12-01T20:52:22.497Z,207.87
2018-12-01T20:54:52.843Z,207.62
2018-12-01T20:57:24.784Z,207.43
2018-12-01T20:59:54.338Z,203.12
2018-12-01T21:02:24.606Z,205.67
2018-12-01T21:04:53.054Z,209.43
2018-12-01T21:07:21.766Z,217.87
2018-12-01T21:09:52.200Z,222.27
2018-12-01T21:12:22.393Z,246.20
2018-12-01T21:14:52.023Z,237.30
2018-12-01T21:17:21.870Z,239.93
2018-12-01T21:19:52.488Z,256.25
2018-12-01T21:22:23.030Z,245.25
2018-12-01T21:24:55.190Z,244.90
2018-12-01T21:27:25.214Z,259.67
2018-12-01T21:29:57.868Z,256.80
2018-12-01T21:32:26.031Z,273.35
2018-12-01T21:34:56.571Z,276.60
2018-12-01T21:37:26.911Z,286.90
2018-12-01T21:39:56.996Z,279.82
2018-12-01T21:42:26.536Z,290.77
2018-12-01T21:44:56.007Z,279.18
2018-12-01T21:47:26.963Z,268.73
2018-12-01T21:49:57.980Z,255.50
2018-12-01T21:52:28.579Z,248.60
2018-12-01T21:54:56.705Z,253.52
2018-12-01T21:57:27.732Z,261.80
2018-12-01T21:59:56.343Z,254.80
2018-12-01T22:02:30.247Z,242.15
2018-12-01T22:04:59.217Z,248.38
2018-12-01T22:07:29.896Z,244.03
2018-12-01T22:09:59.615Z,235.70
2018-12-01T22:12:28.251Z,230.80
2018-12-01T22:14:58.428Z,229.15
2018-12-01T22:17:28.403Z,237.08
2018-12-01T22:19:58.392Z,222.95
2018-12-01T22:22:28.038Z,222.50
2018-12-01T22:24:58.699Z,245.10
2018-12-01T22:27:28.456Z,226.40
2018-12-01T22:29:56.776Z,237.12
2018-12-01T22:32:26.920Z,233.95
2018-12-01T22:34:57.601Z,237.97
2018-12-01T22:37:27.960Z,238.62
2018-12-01T22:39:58.324Z,243.27
2018-12-01T22:42:30.467Z,240.85
2018-12-01T22:44:59.167Z,260.00
2018-12-01T22:47:29.305Z,268.88
2018-12-01T22:50:02.304Z,268.60
2018-12-01T22:52:30.679Z,265.85
2018-12-01T22:55:02.720Z,248.82
2018-12-01T22:57:31.160Z,305.83
2018-12-01T23:00:01.135Z,305.48
2018-12-01T23:02:30.102Z,311.60
2018-12-01T23:04:58.070Z,311.30
2018-12-01T23:07:26.000Z,320.17
2018-12-01T23:09:54.029Z,349.85
2018-12-01T23:12:22.043Z,368.60
2018-12-01T23:14:50.082Z,364.70
2018-12-01T23:17:18.024Z,336.10
2018-12-01T23:19:46.426Z,328.23
2018-12-01T23:22:14.410Z,325.10
2018-12-01T23:24:42.396Z,304.70
2018-12-01T23:27:10.420Z,311.95
2018-12-01T23:29:38.346Z,322.42
2018-12-01T23:32:06.507Z,313.90
2018-12-01T23:34:34.493Z,288.20
2018-12-01T23:37:03.040Z,259.77
2018-12-01T23:39:31.336Z,255.03
2018-12-01T23:41:59.328Z,255.45
2018-12-01T23:44:28.652Z,252.30
2018-12-01T23:46:56.604Z,260.32
2018-12-01T23:49:24.769Z,241.88
2018-12-01T23:51:52.787Z,249.82
2018-12-01T23:54:20.800Z,244.90
2018-12-01T23:56:48.811Z,251.22
2018-12-01T23:59:16.742Z,249.22
